Airfield :







YOU CAN JOIN US ON...

 
LOGIN :

Register | Disclaimer

   EN    FR    IT 

 









Legend :    VFR   Marginal VFR   IFR   Intensive IFR   Very Intensive IFR
Visi :
Ceiling :
>= 8 km
>= 3000ft
5 to 8 km
1000 to 3000 ft
1500m to 5 km
500 to 1000 ft
800 to 1500m
200 to 500 ft
< 800m
< 200 ft
Symbols :   Thunderstorms  Fog  Heavy snow  Heavy precipitations  Wind > 20 kt






- Airport Elevation : 54 ft
- IATA code : BEL


SBBE - Val de Cans Int.

CURRENT METAR :
  • 271600Z 10005KT 9999 SCT035 32/23 Q1012

EXPIRED METARs :
  • 271500Z 14006KT 9999 SCT030 32/23 Q1013
  • 271400Z 10009KT 9999 FEW025 31/23 Q1014

TAF TAF SBBE
Valid from the 27 at 12:00 until the 28 at 12:00 UTC


270900Z 2712/2812 09007KT 9999 FEW020 TX32/2718Z TN24/2809Z
BECMG 2713/2715 15005KT SCT040 FEW045TCU
BECMG 2717/2719 01008KT
BECMG 2721/2723 10005KT CAVOK RMK PDY
SBAZ FIR / South America



MET'MAP, your aeronautical weather chart ! - Copyright ORBIFLY December 2007 - Disclaimer

ORBIFLY MET'MAP TEAM :

Programming & Development : Alexandra Zaïnal
Concept & original design : Baudouin d'Aumeries
Assistance for programming : Marc-Olivier Méhu
Technical & hardware support : Manuel Goepfert

Contact : metmap@orbifly.com




SOURCES & CREDITS :

   NOAA